createdAt,value
2023-04-22T00:00:56.851Z,13.02
2023-04-22T00:03:24.377Z,13.07
2023-04-22T00:05:51.913Z,13.03
2023-04-22T00:08:19.468Z,12.96
2023-04-22T00:10:46.896Z,12.99
2023-04-22T00:13:14.254Z,13.02
2023-04-22T00:15:41.649Z,13.09
2023-04-22T00:18:13.901Z,13.05
2023-04-22T00:20:43.867Z,12.98
2023-04-22T00:23:12.148Z,12.91
2023-04-22T00:25:40.663Z,12.94
2023-04-22T00:28:08.228Z,12.94
2023-04-22T00:30:36.262Z,12.92
2023-04-22T00:33:03.916Z,12.87
2023-04-22T00:35:31.315Z,12.82
2023-04-22T00:38:08.002Z,12.65
2023-04-22T00:40:35.455Z,12.69
2023-04-22T00:43:02.985Z,12.72
2023-04-22T00:45:31.273Z,12.69
2023-04-22T00:47:58.953Z,12.73
2023-04-22T00:50:27.033Z,12.78
2023-04-22T00:52:55.973Z,12.77
2023-04-22T00:55:23.594Z,12.77
2023-04-22T00:57:52.234Z,12.75
2023-04-22T01:00:20.360Z,12.77
2023-04-22T01:02:48.128Z,12.69
2023-04-22T01:05:16.246Z,12.76
2023-04-22T01:07:43.791Z,12.70
2023-04-22T01:10:11.486Z,12.77
2023-04-22T01:12:38.928Z,12.63
2023-04-22T01:15:07.328Z,12.60
2023-04-22T01:17:35.251Z,12.52
2023-04-22T01:20:04.613Z,12.54
2023-04-22T01:22:36.755Z,12.53
2023-04-22T01:25:04.418Z,12.64
2023-04-22T01:27:31.987Z,12.60
2023-04-22T01:29:59.905Z,12.56
2023-04-22T01:32:30.517Z,12.74
2023-04-22T01:34:59.148Z,12.71
2023-04-22T01:37:26.829Z,12.72
2023-04-22T01:39:54.674Z,12.70
2023-04-22T01:42:22.592Z,12.66
2023-04-22T01:44:50.041Z,12.63
2023-04-22T01:47:17.605Z,12.65
2023-04-22T01:49:45.009Z,12.61
2023-04-22T01:52:13.362Z,12.64
2023-04-22T01:54:41.360Z,12.59
2023-04-22T01:57:14.232Z,12.49
2023-04-22T01:59:42.568Z,12.34
2023-04-22T02:02:10.142Z,12.42
2023-04-22T02:04:37.786Z,12.52
2023-04-22T02:07:06.528Z,12.64
2023-04-22T02:09:38.773Z,12.64
2023-04-22T02:12:07.428Z,12.65
2023-04-22T02:14:35.029Z,12.55
2023-04-22T02:17:03.949Z,12.59
2023-04-22T02:19:31.413Z,12.42
2023-04-22T02:21:59.173Z,12.38
2023-04-22T02:24:26.918Z,12.39
2023-04-22T02:26:54.255Z,12.33
2023-04-22T02:29:21.905Z,12.49
2023-04-22T02:31:49.448Z,12.50
2023-04-22T02:34:17.284Z,12.57
2023-04-22T02:36:44.840Z,12.50
2023-04-22T02:39:12.401Z,12.44
2023-04-22T02:41:40.369Z,12.37
2023-04-22T02:44:07.916Z,12.24
2023-04-22T02:46:35.481Z,12.25
2023-04-22T02:49:02.911Z,12.36
2023-04-22T02:51:31.114Z,12.36
2023-04-22T02:53:58.612Z,12.35
2023-04-22T02:56:27.403Z,12.33
2023-04-22T02:58:54.784Z,12.23
2023-04-22T03:01:22.302Z,12.21
2023-04-22T03:03:50.411Z,12.17
2023-04-22T03:06:22.521Z,12.27
2023-04-22T03:08:50.068Z,12.28
2023-04-22T03:11:17.522Z,12.27
2023-04-22T03:13:45.052Z,12.24
2023-04-22T03:16:12.839Z,12.39
2023-04-22T03:18:40.606Z,12.30
2023-04-22T03:21:08.524Z,12.26
2023-04-22T03:23:35.972Z,12.20
2023-04-22T03:26:03.588Z,12.12
2023-04-22T03:28:31.077Z,12.28
2023-04-22T03:30:58.543Z,12.11
2023-04-22T03:33:26.474Z,12.11
2023-04-22T03:36:03.324Z,12.10
2023-04-22T03:38:30.945Z,12.13
2023-04-22T03:40:58.575Z,12.13
2023-04-22T03:43:37.629Z,12.18
2023-04-22T03:46:08.815Z,12.18
2023-04-22T03:48:40.485Z,11.99
2023-04-22T03:51:13.889Z,11.96
2023-04-22T03:53:42.122Z,11.86
2023-04-22T03:56:12.668Z,11.96
2023-04-22T03:58:45.035Z,11.99
2023-04-22T04:01:12.720Z,11.99
2023-04-22T04:03:42.536Z,11.86
2023-04-22T04:06:11.422Z,11.93
2023-04-22T04:08:38.956Z,11.95
2023-04-22T04:11:08.472Z,11.68
2023-04-22T04:13:35.976Z,11.74
2023-04-22T04:16:15.501Z,11.89
2023-04-22T04:18:45.204Z,11.90
2023-04-22T04:21:13.780Z,11.73
2023-04-22T04:23:47.728Z,11.70
2023-04-22T04:26:16.709Z,11.89
2023-04-22T04:28:49.238Z,11.85
2023-04-22T04:31:18.248Z,11.75
2023-04-22T04:33:46.803Z,11.75
2023-04-22T04:36:15.394Z,11.84
2023-04-22T04:38:43.420Z,11.89
2023-04-22T04:41:10.947Z,11.88
2023-04-22T04:43:40.723Z,12.00
2023-04-22T04:46:23.769Z,11.90
2023-04-22T04:48:54.089Z,11.92
2023-04-22T04:51:22.023Z,11.87
2023-04-22T04:53:53.468Z,12.02
2023-04-22T04:56:21.049Z,12.09
2023-04-22T04:58:49.162Z,12.08
2023-04-22T05:01:20.126Z,12.05
2023-04-22T05:03:48.953Z,12.09
2023-04-22T05:06:18.446Z,12.17
2023-04-22T05:08:50.399Z,12.02
2023-04-22T05:11:19.208Z,12.03
2023-04-22T05:13:49.372Z,12.04
2023-04-22T05:16:23.129Z,12.12
2023-04-22T05:18:50.872Z,12.26
2023-04-22T05:21:18.301Z,12.24
2023-04-22T05:23:46.223Z,12.28
2023-04-22T05:26:15.338Z,12.24
2023-04-22T05:28:44.263Z,12.28
2023-04-22T05:31:11.656Z,12.31
2023-04-22T05:33:39.113Z,12.31
2023-04-22T05:36:07.171Z,12.32
2023-04-22T05:38:35.828Z,12.45
2023-04-22T05:41:03.125Z,12.35
2023-04-22T05:43:30.686Z,12.26
2023-04-22T05:46:07.502Z,12.33
2023-04-22T05:48:37.888Z,12.41
2023-04-22T05:51:09.092Z,12.48
2023-04-22T05:53:37.979Z,12.51
2023-04-22T05:56:06.157Z,12.52
2023-04-22T05:58:34.086Z,12.47
2023-04-22T06:01:09.471Z,12.45
2023-04-22T06:03:53.113Z,12.49
2023-04-22T06:06:20.968Z,12.52
2023-04-22T06:08:48.741Z,12.64
2023-04-22T06:11:16.112Z,12.70
2023-04-22T06:13:43.404Z,12.77
2023-04-22T06:16:11.354Z,12.86
2023-04-22T06:18:39.047Z,12.85
2023-04-22T06:21:12.371Z,12.96
2023-04-22T06:23:40.531Z,13.11
2023-04-22T06:26:08.084Z,13.18
2023-04-22T06:28:36.866Z,13.36
2023-04-22T06:31:10.005Z,13.55
2023-04-22T06:33:37.449Z,13.67
2023-04-22T06:36:05.698Z,13.73
2023-04-22T06:38:34.974Z,13.80
2023-04-22T06:41:23.507Z,13.96
2023-04-22T06:43:53.070Z,14.06
2023-04-22T06:46:39.139Z,14.00
2023-04-22T06:49:29.396Z,14.24
2023-04-22T06:52:23.482Z,14.51
2023-04-22T06:54:53.482Z,14.62
2023-04-22T06:57:21.153Z,14.76
2023-04-22T06:59:48.493Z,14.69
2023-04-22T07:02:16.751Z,14.62
2023-04-22T07:04:44.891Z,14.99
2023-04-22T07:07:12.774Z,15.13
2023-04-22T07:09:41.332Z,15.14
2023-04-22T07:12:09.065Z,15.26
2023-04-22T07:14:37.614Z,15.38
2023-04-22T07:17:05.020Z,15.45
2023-04-22T07:19:33.267Z,15.50
2023-04-22T07:22:03.419Z,15.61
2023-04-22T07:24:30.957Z,15.53
2023-04-22T07:26:58.771Z,15.69
2023-04-22T07:29:26.250Z,15.76
2023-04-22T07:31:53.633Z,15.82
2023-04-22T07:34:21.261Z,15.89
2023-04-22T07:36:51.157Z,15.92
2023-04-22T07:39:18.485Z,16.01
2023-04-22T07:41:45.874Z,16.26
2023-04-22T07:44:16.534Z,16.41
2023-04-22T07:46:45.228Z,16.41
2023-04-22T07:49:14.229Z,16.41
2023-04-22T07:51:41.742Z,16.46
2023-04-22T07:54:09.021Z,16.55
2023-04-22T07:56:36.606Z,16.60
2023-04-22T07:59:04.188Z,16.75
2023-04-22T08:01:31.559Z,16.70
2023-04-22T08:03:59.428Z,16.86
2023-04-22T08:06:28.197Z,17.00
2023-04-22T08:08:55.776Z,17.03
2023-04-22T08:11:23.206Z,17.10
2023-04-22T08:13:50.643Z,17.27
2023-04-22T08:16:18.738Z,17.48
2023-04-22T08:18:46.246Z,17.46
2023-04-22T08:21:14.529Z,17.65
2023-04-22T08:23:41.868Z,17.63
2023-04-22T08:26:10.196Z,17.59
2023-04-22T08:28:37.650Z,17.58
2023-04-22T08:31:06.184Z,17.64
2023-04-22T08:33:33.539Z,17.63
2023-04-22T08:36:00.925Z,17.77
2023-04-22T08:38:28.342Z,17.86
2023-04-22T08:40:57.153Z,17.99
2023-04-22T08:43:26.816Z,18.17
2023-04-22T08:45:54.140Z,18.50
2023-04-22T08:48:21.932Z,18.76
2023-04-22T08:50:50.549Z,18.81
2023-04-22T08:53:17.997Z,18.97
2023-04-22T08:55:46.006Z,19.04
2023-04-22T08:58:13.568Z,19.12
2023-04-22T09:00:43.648Z,19.43
2023-04-22T09:03:11.671Z,19.58
2023-04-22T09:05:41.037Z,19.68
2023-04-22T09:08:10.851Z,19.61
2023-04-22T09:10:39.254Z,20.14
2023-04-22T09:13:07.167Z,20.63
2023-04-22T09:15:35.795Z,20.66
2023-04-22T09:18:04.562Z,20.26
2023-04-22T09:20:32.301Z,20.12
2023-04-22T09:23:04.293Z,20.57
2023-04-22T09:25:34.590Z,21.09
2023-04-22T09:28:03.358Z,21.33
2023-04-22T09:30:33.304Z,21.17
2023-04-22T09:33:03.128Z,20.56
2023-04-22T09:35:37.751Z,20.24
2023-04-22T09:38:37.646Z,20.06
2023-04-22T09:41:13.842Z,20.06
2023-04-22T09:43:41.305Z,20.09
2023-04-22T09:46:10.514Z,20.28
2023-04-22T09:48:43.957Z,20.08
2023-04-22T09:51:18.192Z,19.79
2023-04-22T09:53:46.341Z,19.76
2023-04-22T09:56:13.645Z,19.69
2023-04-22T09:58:43.305Z,19.73
2023-04-22T10:01:11.115Z,19.77
2023-04-22T10:03:38.696Z,19.84
2023-04-22T10:06:07.159Z,19.85
2023-04-22T10:08:35.603Z,19.83
2023-04-22T10:11:03.023Z,19.84
2023-04-22T10:13:30.506Z,19.90
2023-04-22T10:15:58.048Z,19.92
2023-04-22T10:18:29.746Z,19.94
2023-04-22T10:20:58.382Z,19.84
2023-04-22T10:23:26.034Z,19.89
2023-04-22T10:25:55.354Z,19.72
2023-04-22T10:28:24.551Z,19.52
2023-04-22T10:30:51.979Z,19.58
2023-04-22T10:33:27.711Z,19.60
2023-04-22T10:36:08.466Z,19.55
2023-04-22T10:38:59.589Z,19.60
2023-04-22T10:41:30.670Z,19.64
2023-04-22T10:44:00.303Z,19.53
2023-04-22T10:46:32.117Z,19.64
2023-04-22T10:49:06.867Z,19.65
2023-04-22T10:51:48.838Z,19.76
2023-04-22T10:54:31.505Z,19.70
2023-04-22T10:57:11.310Z,19.66
2023-04-22T11:00:00.456Z,19.81
2023-04-22T11:02:28.025Z,20.00
2023-04-22T11:05:26.328Z,20.04
2023-04-22T11:07:56.059Z,19.86
2023-04-22T11:10:44.561Z,19.88
2023-04-22T11:13:17.712Z,19.90
2023-04-22T11:15:48.165Z,19.97
2023-04-22T11:18:19.697Z,20.18
2023-04-22T11:20:50.868Z,20.19
2023-04-22T11:23:22.511Z,20.31
2023-04-22T11:25:54.819Z,20.37
2023-04-22T11:28:23.155Z,20.45
2023-04-22T11:30:51.477Z,20.21
2023-04-22T11:33:19.472Z,20.37
2023-04-22T11:35:50.165Z,20.50
2023-04-22T11:38:19.485Z,20.72
2023-04-22T11:40:47.644Z,20.92
2023-04-22T11:43:16.118Z,20.80
2023-04-22T11:45:43.765Z,20.92
2023-04-22T11:48:11.919Z,20.61
2023-04-22T11:50:42.361Z,20.68
2023-04-22T11:53:18.670Z,20.68
2023-04-22T11:55:47.956Z,20.86
2023-04-22T11:58:17.911Z,20.78
2023-04-22T12:00:50.656Z,20.83
2023-04-22T12:03:26.447Z,20.75
2023-04-22T12:05:55.366Z,20.58
2023-04-22T12:08:26.431Z,20.58
2023-04-22T12:10:57.165Z,20.56
2023-04-22T12:13:33.138Z,20.67
2023-04-22T12:16:04.449Z,20.74
2023-04-22T12:18:41.391Z,20.85
2023-04-22T12:21:11.073Z,20.74
2023-04-22T12:24:04.967Z,20.81
2023-04-22T12:26:32.496Z,20.66
2023-04-22T12:29:00.881Z,20.60
2023-04-22T12:31:28.502Z,20.95
2023-04-22T12:33:56.811Z,21.02
2023-04-22T12:36:25.068Z,21.03
2023-04-22T12:38:52.808Z,21.06
2023-04-22T12:41:20.536Z,21.04
2023-04-22T12:43:48.098Z,20.71
2023-04-22T12:46:15.655Z,20.60
2023-04-22T12:48:43.249Z,20.64
2023-04-22T12:51:10.700Z,20.90
2023-04-22T12:53:38.252Z,20.88
2023-04-22T12:56:05.970Z,20.74
2023-04-22T12:58:33.404Z,20.71
2023-04-22T13:01:00.837Z,20.61
2023-04-22T13:03:28.423Z,20.46
2023-04-22T13:05:56.255Z,20.65
2023-04-22T13:08:23.747Z,20.58
2023-04-22T13:10:51.361Z,20.68
2023-04-22T13:13:19.474Z,20.80
2023-04-22T13:15:53.318Z,20.98
2023-04-22T13:18:22.624Z,20.88
2023-04-22T13:20:51.220Z,20.87
2023-04-22T13:23:21.835Z,20.90
2023-04-22T13:25:50.352Z,20.88
2023-04-22T13:28:17.967Z,21.08
2023-04-22T13:30:45.758Z,21.07
2023-04-22T13:33:13.232Z,20.99
2023-04-22T13:35:40.700Z,20.83
2023-04-22T13:38:08.240Z,20.89
2023-04-22T13:40:35.988Z,20.86
2023-04-22T13:43:03.540Z,21.06
2023-04-22T13:45:30.956Z,20.99
2023-04-22T13:47:58.641Z,20.92
2023-04-22T13:50:26.238Z,20.97
2023-04-22T13:52:54.301Z,20.97
2023-04-22T13:55:21.847Z,21.00
2023-04-22T13:57:51.998Z,20.91
2023-04-22T14:00:20.943Z,20.79
2023-04-22T14:02:48.972Z,20.85
2023-04-22T14:05:16.770Z,20.88
2023-04-22T14:07:44.168Z,20.99
2023-04-22T14:10:13.187Z,20.95
2023-04-22T14:12:40.737Z,20.89
2023-04-22T14:15:11.264Z,20.80
2023-04-22T14:17:40.345Z,20.99
2023-04-22T14:20:10.816Z,21.02
2023-04-22T14:22:38.229Z,21.09
2023-04-22T14:25:06.784Z,20.93
2023-04-22T14:27:34.283Z,20.92
2023-04-22T14:30:04.268Z,20.90
2023-04-22T14:32:32.544Z,20.88
2023-04-22T14:35:00.225Z,20.76
2023-04-22T14:37:27.733Z,20.77
2023-04-22T14:39:55.147Z,20.74
2023-04-22T14:42:22.605Z,20.81
2023-04-22T14:44:50.054Z,20.68
2023-04-22T14:47:17.452Z,20.75
2023-04-22T14:49:45.161Z,20.75
2023-04-22T14:52:12.626Z,20.90
2023-04-22T14:54:40.108Z,20.96
2023-04-22T14:57:07.714Z,20.91
2023-04-22T14:59:35.167Z,20.81
2023-04-22T15:02:02.801Z,20.74
2023-04-22T15:04:30.324Z,20.55
2023-04-22T15:06:59.655Z,20.55
2023-04-22T15:09:27.959Z,20.48
2023-04-22T15:11:56.493Z,20.42
2023-04-22T15:14:24.105Z,20.60
2023-04-22T15:16:51.505Z,20.73
2023-04-22T15:19:18.943Z,20.74
2023-04-22T15:21:46.897Z,20.79
2023-04-22T15:24:14.404Z,20.78
2023-04-22T15:26:42.053Z,20.67
2023-04-22T15:29:09.674Z,20.82
2023-04-22T15:31:37.222Z,20.85
2023-04-22T15:34:04.660Z,20.85
2023-04-22T15:36:33.236Z,20.61
2023-04-22T15:39:01.056Z,20.65
2023-04-22T15:41:28.548Z,20.69
2023-04-22T15:43:59.231Z,20.61
2023-04-22T15:46:29.623Z,20.63
2023-04-22T15:48:57.643Z,20.71
2023-04-22T15:51:25.957Z,20.61
2023-04-22T15:53:54.417Z,20.66
2023-04-22T15:56:22.112Z,20.75
2023-04-22T15:58:49.795Z,20.60
2023-04-22T16:01:19.862Z,20.54
2023-04-22T16:03:48.851Z,20.61
2023-04-22T16:06:17.967Z,20.57
2023-04-22T16:08:45.712Z,20.48
2023-04-22T16:11:15.251Z,20.48
2023-04-22T16:13:42.893Z,20.56
2023-04-22T16:16:11.215Z,20.54
2023-04-22T16:18:39.008Z,20.49
2023-04-22T16:21:06.696Z,20.47
2023-04-22T16:23:34.816Z,20.41
2023-04-22T16:26:04.506Z,20.40
2023-04-22T16:28:32.459Z,20.34
2023-04-22T16:31:00.556Z,20.32
2023-04-22T16:33:28.273Z,20.26
2023-04-22T16:35:55.910Z,20.16
2023-04-22T16:38:23.285Z,20.19
2023-04-22T16:40:54.067Z,20.20
2023-04-22T16:43:21.563Z,20.12
2023-04-22T16:45:48.970Z,20.14
2023-04-22T16:48:16.440Z,20.12
2023-04-22T16:50:43.821Z,20.10
2023-04-22T16:53:11.918Z,20.15
2023-04-22T16:55:39.370Z,20.09
2023-04-22T16:58:06.968Z,20.08
2023-04-22T17:00:34.331Z,19.99
2023-04-22T17:03:01.818Z,19.97
2023-04-22T17:05:29.320Z,19.96
2023-04-22T17:07:56.736Z,19.95
2023-04-22T17:10:24.109Z,19.93
2023-04-22T17:12:53.337Z,19.89
2023-04-22T17:15:20.788Z,19.88
2023-04-22T17:17:48.098Z,19.86
2023-04-22T17:20:15.550Z,19.85
2023-04-22T17:22:42.981Z,19.80
2023-04-22T17:25:10.664Z,19.77
2023-04-22T17:27:37.966Z,19.75
2023-04-22T17:30:05.931Z,19.70
2023-04-22T17:32:33.513Z,19.68
2023-04-22T17:35:01.027Z,19.68
2023-04-22T17:37:28.407Z,19.60
2023-04-22T17:39:56.905Z,19.57
2023-04-22T17:42:32.104Z,19.52
2023-04-22T17:45:07.104Z,19.46
2023-04-22T17:47:34.437Z,19.36
2023-04-22T17:50:02.044Z,19.36
2023-04-22T17:52:29.461Z,19.17
2023-04-22T17:54:58.226Z,19.25
2023-04-22T17:57:28.418Z,19.24
2023-04-22T17:59:55.838Z,19.09
2023-04-22T18:02:25.041Z,19.05
2023-04-22T18:04:52.726Z,19.03
2023-04-22T18:07:20.269Z,19.00
2023-04-22T18:09:49.620Z,18.96
2023-04-22T18:12:17.948Z,18.91
2023-04-22T18:14:45.570Z,18.88
2023-04-22T18:17:13.656Z,18.79
2023-04-22T18:19:41.443Z,18.73
2023-04-22T18:22:09.273Z,18.75
2023-04-22T18:24:37.044Z,18.71
2023-04-22T18:27:04.750Z,18.69
2023-04-22T18:29:32.125Z,18.65
2023-04-22T18:31:59.646Z,18.66
2023-04-22T18:34:28.524Z,18.59
2023-04-22T18:36:56.093Z,18.52
2023-04-22T18:39:23.496Z,18.47
2023-04-22T18:41:51.592Z,18.43
2023-04-22T18:44:19.809Z,18.42
2023-04-22T18:46:47.536Z,18.37
2023-04-22T18:49:14.949Z,18.35
2023-04-22T18:51:42.356Z,18.31
2023-04-22T18:54:09.807Z,18.27
2023-04-22T18:56:37.224Z,18.27
2023-04-22T18:59:04.594Z,18.26
2023-04-22T19:01:31.989Z,18.17
2023-04-22T19:04:01.866Z,18.20
2023-04-22T19:06:29.658Z,18.22
2023-04-22T19:08:57.098Z,18.20
2023-04-22T19:11:24.775Z,18.12
2023-04-22T19:13:53.704Z,18.17
2023-04-22T19:16:22.167Z,18.08
2023-04-22T19:18:51.388Z,18.16
2023-04-22T19:21:19.813Z,18.11
2023-04-22T19:23:47.401Z,18.13
2023-04-22T19:26:14.756Z,18.10
2023-04-22T19:28:47.098Z,18.07
2023-04-22T19:31:17.076Z,18.01
2023-04-22T19:33:44.934Z,17.96
2023-04-22T19:36:12.355Z,17.97
2023-04-22T19:38:39.956Z,17.97
2023-04-22T19:41:08.971Z,17.99
2023-04-22T19:43:37.867Z,17.98
2023-04-22T19:46:05.368Z,17.90
2023-04-22T19:48:33.600Z,17.93
2023-04-22T19:51:01.460Z,17.86
2023-04-22T19:53:31.163Z,17.92
2023-04-22T19:55:58.680Z,17.80
2023-04-22T19:58:28.496Z,17.93
2023-04-22T20:00:56.380Z,17.93
2023-04-22T20:03:24.985Z,17.92
2023-04-22T20:05:53.431Z,17.86
2023-04-22T20:08:26.094Z,17.95
2023-04-22T20:10:54.998Z,17.89
2023-04-22T20:13:23.029Z,17.90
2023-04-22T20:15:50.816Z,17.91
2023-04-22T20:18:18.671Z,17.95
2023-04-22T20:20:48.252Z,17.96
2023-04-22T20:23:17.566Z,17.93
2023-04-22T20:25:45.757Z,17.77
2023-04-22T20:28:13.410Z,17.69
2023-04-22T20:30:41.288Z,17.63
2023-04-22T20:33:12.216Z,17.62
2023-04-22T20:35:40.960Z,17.49
2023-04-22T20:38:12.427Z,17.52
2023-04-22T20:40:40.376Z,17.50
2023-04-22T20:43:07.836Z,17.46
2023-04-22T20:45:35.368Z,17.45
2023-04-22T20:48:02.849Z,17.35
2023-04-22T20:50:33.506Z,17.40
2023-04-22T20:53:02.123Z,17.46
2023-04-22T20:55:29.624Z,17.45
2023-04-22T20:57:57.065Z,17.28
2023-04-22T21:00:24.999Z,17.23
2023-04-22T21:02:53.700Z,17.28
2023-04-22T21:05:22.010Z,17.20
2023-04-22T21:07:52.353Z,17.29
2023-04-22T21:10:20.851Z,17.22
2023-04-22T21:12:48.657Z,17.27
2023-04-22T21:15:16.465Z,17.31
2023-04-22T21:17:54.200Z,17.30
2023-04-22T21:20:24.265Z,17.21
2023-04-22T21:22:53.809Z,17.07
2023-04-22T21:25:22.270Z,16.96
2023-04-22T21:27:50.244Z,17.03
2023-04-22T21:30:18.519Z,17.00
2023-04-22T21:32:45.916Z,16.98
2023-04-22T21:35:13.413Z,17.10
2023-04-22T21:37:41.084Z,17.00
2023-04-22T21:40:12.007Z,16.95
2023-04-22T21:42:39.583Z,16.86
2023-04-22T21:45:07.424Z,16.78
2023-04-22T21:47:34.935Z,16.79
2023-04-22T21:50:02.421Z,16.77
2023-04-22T21:52:29.823Z,16.70
2023-04-22T21:54:57.238Z,16.70
2023-04-22T21:57:24.815Z,16.65
2023-04-22T21:59:52.147Z,16.68
2023-04-22T22:02:19.943Z,16.85
2023-04-22T22:04:47.559Z,16.92
2023-04-22T22:07:17.594Z,16.81
2023-04-22T22:09:46.552Z,16.74
2023-04-22T22:12:15.544Z,16.62
2023-04-22T22:14:43.452Z,16.64
2023-04-22T22:17:11.711Z,16.55
2023-04-22T22:19:39.144Z,16.48
2023-04-22T22:22:06.582Z,16.41
2023-04-22T22:24:34.120Z,16.34
2023-04-22T22:27:01.781Z,16.20
2023-04-22T22:29:29.152Z,16.58
2023-04-22T22:31:56.579Z,16.36
2023-04-22T22:34:24.025Z,16.31
2023-04-22T22:36:51.522Z,16.23
2023-04-22T22:39:19.026Z,16.19
2023-04-22T22:41:46.450Z,16.11
2023-04-22T22:44:13.859Z,16.02
2023-04-22T22:46:41.491Z,16.11
2023-04-22T22:49:09.314Z,16.03
2023-04-22T22:51:37.639Z,15.92
2023-04-22T22:54:05.561Z,15.96
2023-04-22T22:56:33.082Z,15.92
2023-04-22T22:59:00.671Z,15.89
2023-04-22T23:01:28.170Z,15.71
2023-04-22T23:03:56.059Z,15.83
2023-04-22T23:06:23.684Z,15.85
2023-04-22T23:08:51.173Z,15.75
2023-04-22T23:11:18.787Z,15.67
2023-04-22T23:13:46.552Z,15.65
2023-04-22T23:16:14.032Z,15.66
2023-04-22T23:18:43.248Z,15.62
2023-04-22T23:21:12.097Z,15.71
2023-04-22T23:23:40.986Z,15.77
2023-04-22T23:26:09.112Z,15.63
2023-04-22T23:28:36.993Z,15.58
2023-04-22T23:31:06.783Z,15.50
2023-04-22T23:33:36.109Z,15.55
2023-04-22T23:36:06.282Z,15.51
2023-04-22T23:38:33.786Z,15.59
2023-04-22T23:41:01.986Z,15.65
2023-04-22T23:43:29.691Z,15.43
2023-04-22T23:45:57.137Z,15.43
2023-04-22T23:48:24.655Z,15.37
2023-04-22T23:50:52.013Z,15.41
2023-04-22T23:53:19.391Z,15.33
2023-04-22T23:55:47.220Z,15.25
2023-04-22T23:58:15.571Z,15.31
